Time;durP1;ratioP1;P1;durP2;ratioP2;P2;SDS_P1;SDS_P2;PMS_P1;PMS_P2;Temp;Humidity;BMP_temperature;BMP_pressure;BME280_temperature;BME280_humidity;BME280_pressure;Samples;Min_cycle;Max_cycle;Signal;HPM_P1;HPM_P2
2022/10/01 00:04:08;;;;;;;5.80;3.88;;;;;;;8.11;100.00;96068.53;10418592;28;96599;-85
2022/10/01 00:09:10;;;;;;;6.32;3.83;;;;;;;7.94;100.00;96053.59;10418986;27;97501;-85
2022/10/01 00:14:13;;;;;;;9.10;4.13;;;;;;;7.85;100.00;96050.03;10414411;28;96792;-85
2022/10/01 00:19:17;;;;;;;7.28;4.28;;;;;;;7.81;100.00;96053.88;10407642;27;97588;-85
2022/10/01 00:24:20;;;;;;;8.05;4.32;;;;;;;7.70;100.00;96056.56;10417714;28;97636;-85
2022/10/01 00:29:23;;;;;;;5.40;3.65;;;;;;;7.68;100.00;96066.28;10417333;28;96709;-85
2022/10/01 00:34:27;;;;;;;7.70;3.22;;;;;;;7.48;100.00;96074.06;10406384;28;96826;-85
2022/10/01 00:39:30;;;;;;;7.63;4.38;;;;;;;7.51;100.00;96068.59;10417690;28;96645;-85
2022/10/01 00:44:35;;;;;;;6.82;3.60;;;;;;;7.63;100.00;96068.47;10408619;28;96741;-85
2022/10/01 00:49:40;;;;;;;;;;;;;;;7.60;100.00;96067.78;10376070;28;97587;-85
2022/10/01 00:54:48;;;;;;;4.90;3.90;;;;;;;7.63;100.00;96081.47;10375655;28;96821;-85
2022/10/01 00:59:53;;;;;;;5.70;3.50;;;;;;;7.57;100.00;96078.44;10383775;28;96688;-85
2022/10/01 01:04:58;;;;;;;6.47;3.30;;;;;;;7.35;100.00;96083.84;10416691;28;96766;-85
2022/10/01 01:10:01;;;;;;;4.70;3.00;;;;;;;7.31;100.00;96085.06;10416858;27;96866;-85
2022/10/01 01:15:15;;;;;;;5.43;3.20;;;;;;;7.32;100.00;96073.72;10405162;28;96725;-85
2022/10/01 01:20:50;;;;;;;5.80;3.33;;;;;;;7.26;100.00;96102.84;10375582;28;97091;-85
2022/10/01 01:26:02;;;;;;;7.45;3.13;;;;;;;7.12;100.00;96102.22;10374947;28;96728;-85
2022/10/01 01:31:13;;;;;;;8.20;4.63;;;;;;;7.01;100.00;96097.94;10393058;28;96829;-85
2022/10/01 01:36:21;;;;;;;5.75;2.85;;;;;;;7.08;100.00;96100.84;10415459;28;96841;-85
2022/10/01 01:41:28;;;;;;;6.22;3.17;;;;;;;7.17;100.00;96097.47;10416328;28;96904;-85
2022/10/01 01:46:35;;;;;;;7.47;3.05;;;;;;;7.17;100.00;96092.25;10393599;28;96680;-85
2022/10/01 01:51:45;;;;;;;6.90;2.72;;;;;;;7.15;100.00;96082.97;10375149;28;97287;-85
2022/10/01 01:56:50;;;;;;;8.75;3.28;;;;;;;7.14;100.00;96081.31;10380785;28;96691;-85
2022/10/01 02:01:54;;;;;;;5.90;3.43;;;;;;;6.93;100.00;96099.50;10407006;28;96686;-85
2022/10/01 02:07:15;;;;;;;4.05;2.42;;;;;;;6.95;100.00;96097.59;10422199;27;96997;-85
2022/10/01 02:12:29;;;;;;;6.60;3.33;;;;;;;6.96;100.00;96112.25;10422350;28;96686;-85
2022/10/01 02:17:44;;;;;;;3.78;2.70;;;;;;;7.05;100.00;96095.91;10390928;27;96714;-85
2022/10/01 02:22:52;;;;;;;7.45;2.75;;;;;;;7.13;100.00;96106.47;10380176;28;97280;-85
2022/10/01 02:27:59;;;;;;;6.97;2.97;;;;;;;7.18;100.00;96104.31;10379389;28;96654;-85
2022/10/01 02:33:07;;;;;;;3.92;2.58;;;;;;;7.24;100.00;96107.34;10407927;28;97599;-86
2022/10/01 02:38:10;;;;;;;3.10;2.50;;;;;;;7.28;100.00;96100.91;10416247;28;96651;-86
2022/10/01 02:43:17;;;;;;;8.43;5.18;;;;;;;7.34;100.00;96092.63;10421201;27;97233;-87
2022/10/01 02:48:22;;;;;;;10.90;3.60;;;;;;;7.39;100.00;96098.25;10407966;27;96759;-86
2022/10/01 02:53:32;;;;;;;4.27;2.83;;;;;;;7.41;100.00;96101.53;10420970;27;97442;-86
2022/10/01 02:58:35;;;;;;;4.05;2.55;;;;;;;7.43;100.00;96111.78;10420715;28;96812;-86
2022/10/01 03:03:41;;;;;;;4.15;2.50;;;;;;;7.38;100.00;96110.41;10420040;27;96852;-86
2022/10/01 03:08:44;;;;;;;3.53;2.47;;;;;;;7.44;100.00;96106.47;10420905;27;96678;-86
2022/10/01 03:13:47;;;;;;;4.47;2.97;;;;;;;7.52;100.00;96111.81;10419627;28;96933;-86
2022/10/01 03:18:51;;;;;;;3.30;2.53;;;;;;;7.55;100.00;96101.16;10394774;28;97086;-86
2022/10/01 03:23:54;;;;;;;3.92;2.40;;;;;;;7.55;100.00;96103.75;10378381;28;97664;-86
2022/10/01 03:28:57;;;;;;;4.65;2.63;;;;;;;7.58;100.00;96100.09;10390419;28;96804;-86
2022/10/01 03:34:01;;;;;;;3.35;2.47;;;;;;;7.54;100.00;96104.69;10419450;28;97536;-86
2022/10/01 03:39:04;;;;;;;2.85;2.50;;;;;;;7.52;100.00;96111.00;10419208;28;96861;-86
2022/10/01 03:44:07;;;;;;;2.63;2.35;;;;;;;7.59;100.00;96112.91;10416461;28;96995;-86
2022/10/01 03:49:11;;;;;;;3.67;2.78;;;;;;;7.68;100.00;96115.69;10377763;28;96894;-86
2022/10/01 03:54:14;;;;;;;3.17;2.72;;;;;;;7.73;100.00;96124.72;10378137;28;96824;-85
2022/10/01 03:59:18;;;;;;;4.05;2.70;;;;;;;7.78;100.00;96125.16;10381348;28;96691;-86
2022/10/01 04:04:22;;;;;;;5.05;2.85;;;;;;;7.87;100.00;96131.34;10419144;28;96814;-86
2022/10/01 04:09:25;;;;;;;3.95;2.70;;;;;;;7.92;100.00;96123.97;10417538;27;96717;-86
2022/10/01 04:14:28;;;;;;;4.05;3.05;;;;;;;7.99;100.00;96129.44;10417104;27;96925;-87
2022/10/01 04:19:32;;;;;;;3.38;2.53;;;;;;;8.04;100.00;96142.06;10414418;27;96786;-87
2022/10/01 04:24:35;;;;;;;4.95;2.58;;;;;;;8.12;100.00;96137.03;10408186;28;97975;-86
2022/10/01 04:29:37;;;;;;;4.90;3.10;;;;;;;8.18;100.00;96133.84;10375825;28;96977;-86
2022/10/01 04:34:52;;;;;;;3.37;2.60;;;;;;;8.20;100.00;96141.53;10376812;28;97276;-87
2022/10/01 04:39:55;;;;;;;3.17;2.88;;;;;;;8.20;100.00;96163.16;10375969;28;96686;-86
2022/10/01 04:44:57;;;;;;;4.28;2.95;;;;;;;8.16;100.00;96151.38;10385878;28;97095;-86
2022/10/01 04:50:02;;;;;;;4.07;2.85;;;;;;;8.14;100.00;96151.53;10417224;28;96893;-84
2022/10/01 04:55:05;;;;;;;5.43;2.95;;;;;;;8.15;100.00;96165.34;10415804;27;97114;-84
2022/10/01 05:00:10;;;;;;;6.63;3.55;;;;;;;8.18;100.00;96170.28;10404623;28;96681;-84
2022/10/01 05:05:16;;;;;;;4.30;3.13;;;;;;;8.22;100.00;96171.69;10375112;28;96844;-84
2022/10/01 05:10:21;;;;;;;4.72;3.15;;;;;;;8.30;100.00;96178.81;10391322;28;96711;-84
2022/10/01 05:15:24;;;;;;;4.68;3.10;;;;;;;8.29;100.00;96164.97;10403303;28;96700;-85
2022/10/01 05:20:28;;;;;;;4.18;3.13;;;;;;;8.32;100.00;96171.69;10410195;28;96729;-84
2022/10/01 05:25:31;;;;;;;5.63;3.37;;;;;;;8.31;100.00;96176.06;10416043;27;96652;-84
2022/10/01 05:30:34;;;;;;;5.15;3.13;;;;;;;8.32;100.00;96180.31;10415171;27;97005;-84
2022/10/01 05:35:41;;;;;;;6.45;3.17;;;;;;;8.35;100.00;96187.84;10417169;28;96913;-85
2022/10/01 05:40:46;;;;;;;5.05;3.10;;;;;;;8.42;100.00;96195.94;10416335;28;97008;-85
2022/10/01 05:45:49;;;;;;;4.60;2.72;;;;;;;8.49;100.00;96204.03;10416265;28;96944;-85
2022/10/01 05:50:54;;;;;;;4.72;3.20;;;;;;;8.52;100.00;96186.34;10415023;27;96702;-85
2022/10/01 05:56:01;;;;;;;4.57;3.07;;;;;;;8.53;100.00;96194.97;10415485;28;96975;-84
2022/10/01 06:01:04;;;;;;;5.70;2.97;;;;;;;8.58;100.00;96197.19;10414278;28;96825;-85
2022/10/01 06:06:09;;;;;;;4.43;3.00;;;;;;;8.61;100.00;96196.94;10415089;28;96799;-84
2022/10/01 06:11:11;;;;;;;5.20;3.08;;;;;;;8.63;100.00;96201.03;10414897;28;96679;-84
2022/10/01 06:16:15;;;;;;;5.10;3.25;;;;;;;8.70;100.00;96203.91;10394271;28;97261;-84
2022/10/01 06:21:19;;;;;;;5.30;3.47;;;;;;;8.78;100.00;96219.69;10398896;28;97007;-84
2022/10/01 06:26:23;;;;;;;4.80;3.17;;;;;;;8.86;100.00;96216.38;10415129;27;96910;-84
2022/10/01 06:31:26;;;;;;;4.25;3.00;;;;;;;8.85;100.00;96222.56;10410249;27;96856;-84
2022/10/01 06:36:30;;;;;;;7.15;3.80;;;;;;;8.83;100.00;96233.13;10414448;27;96900;-85
2022/10/01 06:41:33;;;;;;;4.80;3.10;;;;;;;8.80;100.00;96217.75;10420728;27;96653;-84
2022/10/01 06:46:36;;;;;;;6.22;3.53;;;;;;;8.80;100.00;96237.78;10420941;27;96946;-85
2022/10/01 06:57:01;;;;;;;4.53;3.35;;;;;;;8.83;100.00;96268.75;10420991;28;97093;-86
2022/10/01 07:02:03;;;;;;;4.78;3.42;;;;;;;8.87;100.00;96272.75;10401749;28;97044;-85
2022/10/01 07:07:08;;;;;;;6.78;3.78;;;;;;;8.92;100.00;96257.53;10420864;27;96783;-85
2022/10/01 07:12:10;;;;;;;4.82;3.55;;;;;;;9.00;100.00;96249.84;10413155;27;96747;-85
2022/10/01 07:17:13;;;;;;;3.63;2.80;;;;;;;9.13;100.00;96256.56;10409117;27;99493;-84
2022/10/01 07:22:18;;;;;;;5.22;3.67;;;;;;;9.23;100.00;96265.19;10412587;28;96883;-84
2022/10/01 07:27:21;;;;;;;6.95;4.57;;;;;;;9.25;100.00;96264.09;10420427;27;97204;-85
2022/10/01 07:32:23;;;;;;;5.22;3.90;;;;;;;9.25;100.00;96278.91;10413888;27;96898;-85
2022/10/01 07:37:28;;;;;;;7.03;3.65;;;;;;;9.29;100.00;96264.63;10419015;28;96858;-85
2022/10/01 07:42:30;;;;;;;6.68;4.03;;;;;;;9.36;100.00;96263.09;10420098;27;96629;-85
2022/10/01 07:47:33;;;;;;;5.15;3.78;;;;;;;9.44;100.00;96268.50;10387560;27;97461;-85
2022/10/01 07:52:38;;;;;;;4.90;3.75;;;;;;;9.47;100.00;96273.44;10376757;28;96765;-85
2022/10/01 07:57:41;;;;;;;6.77;4.60;;;;;;;9.53;100.00;96286.88;10377248;28;96961;-84
2022/10/01 08:02:47;;;;;;;7.70;4.45;;;;;;;9.63;100.00;96272.84;10377532;28;96869;-84
2022/10/01 08:07:52;;;;;;;6.00;4.22;;;;;;;9.70;100.00;96262.66;10378612;28;96875;-84
2022/10/01 08:13:00;;;;;;;5.93;4.90;;;;;;;9.76;100.00;96256.06;10414584;28;96749;-84
2022/10/01 08:18:04;;;;;;;7.97;5.85;;;;;;;9.78;100.00;96254.94;10383249;28;97420;-84
2022/10/01 08:23:10;;;;;;;8.77;5.53;;;;;;;9.86;100.00;96262.88;10408899;28;96873;-84
2022/10/01 08:28:14;;;;;;;5.95;4.80;;;;;;;9.97;100.00;96276.72;10413577;27;97466;-85
2022/10/01 08:33:17;;;;;;;5.88;4.70;;;;;;;10.04;100.00;96290.84;10417187;28;96688;-85
2022/10/01 08:38:21;;;;;;;5.13;4.53;;;;;;;10.07;100.00;96295.78;10414336;27;97512;-84
2022/10/01 08:43:31;;;;;;;6.47;4.85;;;;;;;10.02;100.00;96308.44;10416712;28;96851;-85
2022/10/01 08:48:45;;;;;;;5.97;5.18;;;;;;;9.98;100.00;96327.97;10380736;27;96935;-84
2022/10/01 08:53:54;;;;;;;7.18;5.10;;;;;;;9.95;100.00;96333.47;10416501;27;96841;-84
2022/10/01 08:58:59;;;;;;;7.40;5.35;;;;;;;9.93;100.00;96351.03;10416911;27;98747;-84
2022/10/01 09:04:04;;;;;;;6.72;6.03;;;;;;;9.90;100.00;96352.13;10417157;28;96811;-84
2022/10/01 09:09:24;;;;;;;5.70;5.15;;;;;;;9.85;100.00;96359.56;10413191;28;97016;-84
2022/10/01 09:14:39;;;;;;;5.78;4.93;;;;;;;9.86;100.00;96367.25;10411043;28;97075;-84
2022/10/01 09:20:01;;;;;;;6.22;5.25;;;;;;;9.89;100.00;96376.59;10405054;27;98152;-84
2022/10/01 09:25:13;;;;;;;7.57;5.15;;;;;;;9.93;100.00;96388.41;10412166;27;96859;-84
2022/10/01 09:30:19;;;;;;;5.47;4.07;;;;;;;9.88;100.00;96384.56;10385554;28;96792;-84
2022/10/01 09:35:40;;;;;;;5.75;4.80;;;;;;;9.77;100.00;96381.16;10409378;28;97374;-84
2022/10/01 09:40:51;;;;;;;6.72;4.97;;;;;;;9.67;100.00;96388.16;10403552;28;96979;-84
2022/10/01 09:45:55;;;;;;;4.85;4.15;;;;;;;9.59;100.00;96382.78;10399375;27;97267;-84
2022/10/01 09:51:03;;;;;;;5.88;4.80;;;;;;;9.55;100.00;96395.28;10400562;28;96950;-85
2022/10/01 09:56:14;;;;;;;5.93;3.78;;;;;;;9.52;100.00;96392.94;10411579;27;97028;-84
2022/10/01 10:01:23;;;;;;;4.40;2.80;;;;;;;9.42;100.00;96400.78;10409300;27;96916;-84
2022/10/01 10:06:29;;;;;;;3.20;2.65;;;;;;;9.35;100.00;96402.25;10413921;28;96737;-85
2022/10/01 10:11:34;;;;;;;3.83;2.00;;;;;;;9.28;100.00;96411.56;10413649;27;96707;-85
2022/10/01 10:16:45;;;;;;;2.65;2.08;;;;;;;9.23;100.00;96406.78;10414539;28;97635;-85
2022/10/01 10:21:52;;;;;;;3.28;2.20;;;;;;;9.26;100.00;96422.16;10411992;27;97705;-84
2022/10/01 10:26:58;;;;;;;3.08;1.33;;;;;;;9.29;100.00;96413.22;10420549;28;96910;-84
2022/10/01 10:32:06;;;;;;;2.30;1.10;;;;;;;9.27;100.00;96418.56;10420432;28;96768;-84
2022/10/01 10:37:14;;;;;;;2.40;1.35;;;;;;;9.27;100.00;96428.19;10417032;27;99411;-85
2022/10/01 10:42:21;;;;;;;1.67;1.33;;;;;;;9.27;100.00;96420.38;10418562;28;97023;-86
2022/10/01 10:47:27;;;;;;;2.38;1.42;;;;;;;9.36;100.00;96416.13;10411469;28;97037;-84
2022/10/01 10:52:34;;;;;;;1.88;1.20;;;;;;;9.45;100.00;96408.34;10409685;27;96837;-84
2022/10/01 10:57:38;;;;;;;1.95;1.50;;;;;;;9.55;100.00;96410.94;10416338;28;96704;-85
2022/10/01 11:02:50;;;;;;;3.37;1.73;;;;;;;9.57;100.00;96408.19;10420160;28;96837;-86
2022/10/01 11:07:57;;;;;;;1.58;1.45;;;;;;;9.55;100.00;96404.91;10420199;28;96678;-86
2022/10/01 11:13:17;;;;;;;1.85;1.48;;;;;;;9.55;100.00;96431.00;10420202;28;97089;-85
2022/10/01 11:18:44;;;;;;;2.03;1.55;;;;;;;9.49;100.00;96427.16;10383593;27;96845;-85
2022/10/01 11:24:07;;;;;;;1.80;1.25;;;;;;;9.44;100.00;96435.38;10416053;27;97158;-85
2022/10/01 11:29:26;;;;;;;2.08;1.20;;;;;;;9.46;100.00;96432.63;10415248;27;97056;-86
2022/10/01 11:34:47;;;;;;;2.85;1.17;;;;;;;9.51;100.00;96433.03;10406302;28;96915;-86
2022/10/01 11:39:56;;;;;;;1.38;1.10;;;;;;;9.61;100.00;96430.44;10414517;28;97006;-85
2022/10/01 11:45:06;;;;;;;1.60;1.00;;;;;;;9.64;100.00;96425.75;10416532;27;98901;-86
2022/10/01 11:50:17;;;;;;;0.98;0.80;;;;;;;9.76;100.00;96433.47;10413849;28;96767;-85
2022/10/01 12:00:58;;;;;;;2.95;1.35;;;;;;;9.98;100.00;96416.69;10417560;28;96790;-85
2022/10/01 12:06:02;;;;;;;3.08;1.65;;;;;;;10.05;100.00;96429.03;10417553;28;97373;-85
2022/10/01 12:11:14;;;;;;;1.80;1.50;;;;;;;10.11;100.00;96424.22;10417649;28;96794;-85
2022/10/01 12:16:29;;;;;;;2.65;1.65;;;;;;;10.18;100.00;96413.09;10415363;27;96845;-84
2022/10/01 12:21:37;;;;;;;5.30;2.60;;;;;;;10.22;100.00;96409.22;10415845;28;97929;-86
2022/10/01 12:26:51;;;;;;;3.03;1.75;;;;;;;10.23;100.00;96410.88;10418474;27;96914;-84
2022/10/01 12:32:05;;;;;;;1.88;1.38;;;;;;;10.22;100.00;96398.78;10412729;28;96906;-85
2022/10/01 12:37:18;;;;;;;2.30;1.08;;;;;;;10.11;100.00;96395.50;10404408;27;97070;-85
2022/10/01 12:42:53;;;;;;;2.90;1.15;;;;;;;10.05;100.00;96407.34;10405824;27;97004;-85
2022/10/01 12:48:06;;;;;;;1.30;1.05;;;;;;;9.97;100.00;96415.03;10386530;27;98552;-85
2022/10/01 12:53:23;;;;;;;1.17;0.95;;;;;;;9.89;100.00;96417.50;10415309;28;96955;-85
2022/10/01 12:59:07;;;;;;;1.52;1.17;;;;;;;9.84;100.00;96404.91;10416512;27;96723;-85
2022/10/01 13:04:46;;;;;;;2.13;1.20;;;;;;;9.88;100.00;96400.22;10375418;28;96877;-84
2022/10/01 13:10:02;;;;;;;1.58;1.17;;;;;;;9.93;100.00;96405.84;10383217;28;96976;-85
2022/10/01 13:15:12;;;;;;;1.00;0.90;;;;;;;9.92;100.00;96406.78;10415607;27;96742;-86
2022/10/01 13:20:23;;;;;;;2.50;0.90;;;;;;;9.97;100.00;96404.59;10412271;28;96946;-87
2022/10/01 13:25:36;;;;;;;1.13;0.98;;;;;;;10.02;100.00;96405.00;10395099;27;96930;-87
2022/10/01 13:30:55;;;;;;;1.17;0.80;;;;;;;10.07;100.00;96415.84;10398846;27;96755;-86
2022/10/01 13:36:00;;;;;;;0.65;0.52;;;;;;;10.10;100.00;96415.56;10406445;27;97293;-85
2022/10/01 13:41:15;;;;;;;1.48;0.73;;;;;;;10.16;100.00;96409.78;10409287;27;96932;-85
2022/10/01 13:46:18;;;;;;;0.83;0.80;;;;;;;10.36;100.00;96412.34;10415848;27;97666;-85
2022/10/01 13:51:21;;;;;;;0.60;0.47;;;;;;;10.51;100.00;96423.16;10430829;27;96853;-85
2022/10/01 13:56:31;;;;;;;0.52;0.47;;;;;;;10.57;100.00;96423.41;10431593;27;96906;-86
2022/10/01 14:01:39;;;;;;;0.50;0.50;;;;;;;10.47;100.00;96409.56;10428956;27;96880;-86
2022/10/01 14:06:48;;;;;;;2.03;0.65;;;;;;;10.43;100.00;96421.25;10431730;27;96919;-86
2022/10/01 14:17:21;;;;;;;0.80;0.70;;;;;;;10.45;100.00;96414.09;10430032;27;97221;-85
2022/10/01 14:22:43;;;;;;;1.73;0.68;;;;;;;10.43;100.00;96414.25;10440294;27;97290;-86
2022/10/01 14:27:52;;;;;;;2.05;0.98;;;;;;;10.46;100.00;96409.69;10420321;27;97971;-86
2022/10/01 14:33:12;;;;;;;1.60;0.90;;;;;;;10.50;100.00;96405.84;10415230;28;96859;-86
2022/10/01 14:38:20;;;;;;;1.85;1.05;;;;;;;10.51;100.00;96421.38;10417773;28;96647;-86
2022/10/01 14:43:25;;;;;;;2.00;1.20;;;;;;;10.51;100.00;96447.50;10420810;28;96858;-86
2022/10/01 14:48:31;;;;;;;1.02;0.60;;;;;;;10.53;100.00;96445.56;10415112;28;96801;-86
2022/10/01 14:53:37;;;;;;;1.23;0.60;;;;;;;10.63;100.00;96442.09;10413783;28;96767;-86
2022/10/01 14:58:44;;;;;;;0.73;0.60;;;;;;;10.73;100.00;96446.31;10412452;27;97219;-86
2022/10/01 15:03:49;;;;;;;1.88;0.60;;;;;;;10.79;100.00;96450.97;10416906;28;97259;-86
2022/10/01 15:08:55;;;;;;;1.65;0.80;;;;;;;10.85;100.00;96457.41;10417149;27;96855;-86
2022/10/01 15:14:02;;;;;;;;;;;;;;;10.76;100.00;96435.56;10416892;28;97432;-86
2022/10/01 15:19:08;;;;;;;0.60;0.40;;;;;;;10.82;100.00;96442.00;10414439;27;98080;-86
2022/10/01 15:24:23;;;;;;;0.32;0.32;;;;;;;10.78;100.00;96445.88;10417305;27;97278;-85
2022/10/01 15:29:28;;;;;;;0.93;0.40;;;;;;;10.77;100.00;96434.63;10414986;28;97018;-85
2022/10/01 15:34:32;;;;;;;1.70;0.57;;;;;;;10.84;100.00;96428.81;10416937;28;96830;-84
2022/10/01 15:39:38;;;;;;;1.08;0.25;;;;;;;10.87;100.00;96424.09;10412560;28;98649;-84
2022/10/01 15:44:45;;;;;;;0.30;0.20;;;;;;;10.86;100.00;96427.69;10409587;28;97300;-84
2022/10/01 15:50:02;;;;;;;0.43;0.28;;;;;;;10.82;100.00;96431.56;10414945;28;97030;-84
2022/10/01 15:55:14;;;;;;;0.47;0.40;;;;;;;10.82;100.00;96426.31;10414035;28;97839;-84
2022/10/01 16:00:27;;;;;;;1.05;0.38;;;;;;;10.86;100.00;96427.69;10415464;28;97770;-84
2022/10/01 16:05:45;;;;;;;1.02;0.70;;;;;;;10.83;100.00;96454.13;10409388;28;97318;-84
2022/10/01 16:11:07;;;;;;;0.63;0.45;;;;;;;10.88;100.00;96458.94;10402420;27;96843;-84
2022/10/01 16:16:29;;;;;;;0.80;0.60;;;;;;;10.97;100.00;96474.53;10410952;27;97354;-84
2022/10/01 16:21:40;;;;;;;0.30;0.28;;;;;;;11.01;100.00;96482.94;10405809;28;96712;-84
2022/10/01 16:26:44;;;;;;;0.55;0.40;;;;;;;11.03;100.00;96488.81;10414742;28;97201;-84
2022/10/01 16:31:50;;;;;;;0.47;0.45;;;;;;;11.02;100.00;96470.69;10411048;28;97357;-84
2022/10/01 16:36:53;;;;;;;0.60;0.60;;;;;;;11.01;100.00;96480.31;10414813;27;96836;-84
2022/10/01 16:41:56;;;;;;;0.60;0.50;;;;;;;11.02;100.00;96494.22;10414722;27;96719;-85
2022/10/01 16:47:20;;;;;;;1.00;0.65;;;;;;;11.02;100.00;96496.84;10416435;28;96966;-84
2022/10/01 16:52:23;;;;;;;1.13;0.40;;;;;;;11.06;100.00;96503.41;10407816;28;98058;-83
2022/10/01 16:57:25;;;;;;;0.60;0.60;;;;;;;11.04;100.00;96507.97;10405578;28;97962;-84
2022/10/01 17:02:31;;;;;;;0.67;0.53;;;;;;;10.98;100.00;96510.19;10406116;28;96814;-84
2022/10/01 17:07:34;;;;;;;0.80;0.50;;;;;;;11.00;100.00;96507.44;10413142;28;97372;-84
2022/10/01 17:12:37;;;;;;;0.80;0.40;;;;;;;11.02;100.00;96507.28;10413366;28;97076;-84
2022/10/01 17:17:41;;;;;;;0.70;0.60;;;;;;;10.96;100.00;96522.59;10413040;28;97642;-84
2022/10/01 17:22:44;;;;;;;1.38;0.60;;;;;;;10.96;100.00;96540.88;10412214;27;97213;-84
2022/10/01 17:27:47;;;;;;;1.02;0.50;;;;;;;10.95;100.00;96531.38;10412097;28;97132;-84
2022/10/01 17:32:52;;;;;;;1.00;0.70;;;;;;;10.96;100.00;96522.59;10407324;27;97128;-84
2022/10/01 17:37:55;;;;;;;0.95;0.55;;;;;;;10.95;100.00;96536.59;10404852;28;97377;-84
2022/10/01 17:42:57;;;;;;;0.75;0.40;;;;;;;10.97;100.00;96547.75;10436016;27;97190;-85
2022/10/01 17:48:02;;;;;;;0.70;0.50;;;;;;;11.02;100.00;96563.00;10399094;28;97322;-85
2022/10/01 17:53:05;;;;;;;0.28;0.20;;;;;;;11.07;100.00;96565.19;10408084;28;96966;-86
2022/10/01 17:58:08;;;;;;;0.77;0.40;;;;;;;11.10;100.00;96559.66;10404936;27;96935;-89
2022/10/01 18:03:13;;;;;;;1.17;0.70;;;;;;;11.12;100.00;96561.19;10387718;28;96856;-85
2022/10/01 18:08:16;;;;;;;2.10;0.70;;;;;;;11.16;100.00;96556.50;10396774;27;97061;-85
2022/10/01 18:13:19;;;;;;;0.73;0.50;;;;;;;11.21;100.00;96571.72;10404731;27;97029;-85
2022/10/01 18:18:23;;;;;;;0.75;0.50;;;;;;;11.21;100.00;96572.59;10407124;27;98236;-85
2022/10/01 18:23:46;;;;;;;0.80;0.60;;;;;;;11.28;100.00;96576.25;10406315;28;97075;-85
2022/10/01 18:28:50;;;;;;;0.98;0.70;;;;;;;11.35;100.00;96595.69;10423675;27;96800;-85
2022/10/01 18:33:57;;;;;;;1.10;0.85;;;;;;;11.44;100.00;96614.09;10433197;27;97055;-86
2022/10/01 18:39:07;;;;;;;1.02;0.70;;;;;;;11.50;100.00;96629.19;10434651;27;97083;-85
2022/10/01 18:44:12;;;;;;;1.60;1.05;;;;;;;11.54;100.00;96630.59;10429482;27;96891;-85
2022/10/01 18:50:02;;;;;;;2.40;1.10;;;;;;;11.58;100.00;96629.31;10404287;28;97698;-86
2022/10/01 18:55:19;;;;;;;1.00;0.90;;;;;;;11.63;100.00;96623.66;10378606;28;97325;-85
2022/10/01 19:00:23;;;;;;;1.70;1.20;;;;;;;11.66;100.00;96608.50;10367358;28;97177;-85
2022/10/01 19:05:58;;;;;;;0.88;0.80;;;;;;;11.68;100.00;96613.59;10378844;28;96966;-84
2022/10/01 19:11:06;;;;;;;1.10;0.87;;;;;;;11.69;100.00;96613.44;10386876;28;97368;-84
2022/10/01 19:16:21;;;;;;;2.08;1.30;;;;;;;11.71;100.00;96632.44;10369596;28;96859;-84
2022/10/01 19:21:33;;;;;;;2.40;1.70;;;;;;;11.72;100.00;96639.28;10379820;28;97476;-84
2022/10/01 19:26:44;;;;;;;3.25;2.00;;;;;;;11.74;100.00;96649.63;10385022;28;97063;-84
2022/10/01 19:31:54;;;;;;;3.70;1.60;;;;;;;11.77;100.00;96636.25;10420161;27;97123;-85
2022/10/01 19:37:05;;;;;;;2.45;1.55;;;;;;;11.78;100.00;96643.16;10414903;27;96786;-85
2022/10/01 19:42:14;;;;;;;5.85;2.15;;;;;;;11.79;100.00;96646.59;10412546;27;97270;-86
2022/10/01 19:47:27;;;;;;;2.22;2.03;;;;;;;11.79;100.00;96643.97;10421151;27;97035;-86
2022/10/01 19:52:38;;;;;;;2.03;1.83;;;;;;;11.81;100.00;96660.34;10423896;27;96961;-86
2022/10/01 19:57:42;;;;;;;2.38;1.50;;;;;;;11.84;100.00;96653.03;10422898;27;97113;-84
2022/10/01 20:02:58;;;;;;;2.08;1.42;;;;;;;11.87;100.00;96659.78;10436579;27;96922;-84
2022/10/01 20:08:14;;;;;;;1.85;1.48;;;;;;;11.82;100.00;96669.84;10432636;27;97310;-85
2022/10/01 20:13:30;;;;;;;1.88;1.40;;;;;;;11.81;100.00;96678.66;10435703;27;97117;-85
2022/10/01 20:18:41;;;;;;;1.58;1.45;;;;;;;11.79;100.00;96665.72;10435992;27;96826;-85
2022/10/01 20:23:51;;;;;;;1.48;1.20;;;;;;;11.83;100.00;96667.09;10429181;27;97312;-85
2022/10/01 20:29:20;;;;;;;6.03;4.53;;;;;;;11.88;100.00;96675.34;10412811;27;97007;-85
2022/10/01 20:34:32;;;;;;;6.43;4.82;;;;;;;11.90;100.00;96667.31;10412374;28;96984;-85
2022/10/01 20:39:41;;;;;;;3.72;3.05;;;;;;;11.91;100.00;96695.16;10414838;27;97357;-86
2022/10/01 20:44:45;;;;;;;2.20;1.70;;;;;;;11.89;100.00;96692.69;10412043;28;98233;-84
2022/10/01 20:49:54;;;;;;;2.30;2.00;;;;;;;11.91;100.00;96695.97;10421628;27;97160;-85
2022/10/01 20:55:03;;;;;;;3.08;2.53;;;;;;;11.95;100.00;96691.28;10426064;27;97116;-86
2022/10/01 21:00:13;;;;;;;2.78;2.30;;;;;;;11.99;100.00;96697.88;10435111;27;97181;-85
2022/10/01 21:05:24;;;;;;;5.13;2.42;;;;;;;12.00;100.00;96686.41;10433127;27;97252;-86
2022/10/01 21:10:37;;;;;;;3.00;2.40;;;;;;;12.04;100.00;96690.41;10434816;27;97595;-86
2022/10/01 21:15:52;;;;;;;2.20;2.00;;;;;;;12.03;100.00;96688.75;10425519;27;96892;-85
2022/10/01 21:21:04;;;;;;;2.85;2.47;;;;;;;12.03;100.00;96699.22;10429613;27;97326;-86
2022/10/01 21:26:16;;;;;;;3.50;2.83;;;;;;;11.98;100.00;96714.56;10433492;27;96985;-86
2022/10/01 21:31:33;;;;;;;3.10;2.20;;;;;;;12.02;100.00;96718.53;10430353;27;96773;-86
2022/10/01 21:36:47;;;;;;;3.33;2.40;;;;;;;12.11;100.00;96722.91;10422035;27;97509;-86
2022/10/01 21:42:00;;;;;;;3.88;3.28;;;;;;;12.19;100.00;96703.84;10428801;27;97091;-86
2022/10/01 21:47:08;;;;;;;9.10;6.15;;;;;;;12.26;100.00;96699.66;10427935;27;97159;-85
2022/10/01 21:52:27;;;;;;;3.65;2.33;;;;;;;12.33;100.00;96710.38;10422560;27;98036;-86
2022/10/01 21:58:00;;;;;;;3.80;2.00;;;;;;;12.34;100.00;96716.47;10430693;27;97051;-86
2022/10/01 22:03:15;;;;;;;2.28;1.77;;;;;;;12.41;100.00;96718.31;10429705;27;96917;-85
2022/10/01 22:08:45;;;;;;;2.22;1.95;;;;;;;12.50;100.00;96756.75;10427917;27;97003;-84
2022/10/01 22:13:53;;;;;;;2.33;1.70;;;;;;;12.55;100.00;96750.25;10427868;27;96889;-85
2022/10/01 22:18:57;;;;;;;4.70;3.80;;;;;;;12.63;100.00;96763.41;10416323;28;96851;-85
2022/10/01 22:24:06;;;;;;;2.77;2.10;;;;;;;12.62;100.00;96778.34;10434210;27;97184;-84
2022/10/01 22:29:16;;;;;;;13.90;10.18;;;;;;;12.59;100.00;96789.09;10443813;27;96899;-84
2022/10/01 22:34:23;;;;;;;27.17;18.83;;;;;;;12.58;100.00;96768.28;10398751;27;96694;-84
2022/10/01 22:39:28;;;;;;;3.03;2.22;;;;;;;12.60;100.00;96774.22;10404272;27;96816;-84
2022/10/01 22:44:33;;;;;;;2.90;2.60;;;;;;;12.59;100.00;96786.47;10451071;27;97003;-85
2022/10/01 22:49:57;;;;;;;27.90;22.35;;;;;;;12.59;100.00;96789.09;10448439;27;96837;-86
2022/10/01 22:55:14;;;;;;;4.13;2.80;;;;;;;12.65;100.00;96790.34;10432454;27;96967;-85
2022/10/01 23:00:20;;;;;;;4.03;2.90;;;;;;;12.66;100.00;96789.34;10426739;27;97009;-85
2022/10/01 23:05:39;;;;;;;3.65;2.85;;;;;;;12.64;100.00;96801.78;10419773;28;96743;-83
2022/10/01 23:10:51;;;;;;;5.90;3.55;;;;;;;12.62;100.00;96798.50;10419624;28;96824;-85
2022/10/01 23:16:07;;;;;;;4.85;3.05;;;;;;;12.64;100.00;96794.72;10418327;28;97216;-85
2022/10/01 23:21:23;;;;;;;3.78;3.38;;;;;;;12.64;100.00;96799.16;10413593;27;96722;-85
2022/10/01 23:26:35;;;;;;;3.83;3.10;;;;;;;12.62;100.00;96796.69;10377009;28;97059;-86
2022/10/01 23:31:50;;;;;;;3.83;3.25;;;;;;;12.65;100.00;96803.44;10376021;28;96766;-86
2022/10/01 23:37:02;;;;;;;3.92;3.17;;;;;;;12.65;100.00;96790.34;10385036;28;96900;-86
2022/10/01 23:42:19;;;;;;;4.03;3.30;;;;;;;12.61;100.00;96796.81;10418718;28;96960;-87
2022/10/01 23:47:38;;;;;;;3.40;2.67;;;;;;;12.63;100.00;96800.13;10419154;28;96877;-87
2022/10/01 23:52:47;;;;;;;3.15;2.70;;;;;;;12.63;100.00;96800.13;10418810;27;96926;-87
2022/10/01 23:57:56;;;;;;;4.15;2.60;;;;;;;12.62;100.00;96799.31;10418181;28;97121;-87
